sensor_id;sensor_type;location;lat;lon;timestamp;temperature;humidity
50955;DHT22;36966;48.064;-0.792;2024-02-16T00:01:10;18.00;59.40
50955;DHT22;36966;48.064;-0.792;2024-02-16T00:03:29;18.00;59.60
50955;DHT22;36966;48.064;-0.792;2024-02-16T00:05:48;18.00;59.60
50955;DHT22;36966;48.064;-0.792;2024-02-16T00:08:10;18.00;59.60
50955;DHT22;36966;48.064;-0.792;2024-02-16T00:10:29;18.00;59.50
50955;DHT22;36966;48.064;-0.792;2024-02-16T00:12:49;18.00;59.60
50955;DHT22;36966;48.064;-0.792;2024-02-16T00:15:08;18.00;59.70
50955;DHT22;36966;48.064;-0.792;2024-02-16T00:17:27;18.00;59.60
50955;DHT22;36966;48.064;-0.792;2024-02-16T00:19:47;18.00;59.70
50955;DHT22;36966;48.064;-0.792;2024-02-16T00:22:06;18.00;59.70
50955;DHT22;36966;48.064;-0.792;2024-02-16T00:24:29;18.00;59.70
50955;DHT22;36966;48.064;-0.792;2024-02-16T00:26:50;18.00;59.70
50955;DHT22;36966;48.064;-0.792;2024-02-16T00:29:10;18.00;59.70
50955;DHT22;36966;48.064;-0.792;2024-02-16T00:31:29;18.00;59.80
50955;DHT22;36966;48.064;-0.792;2024-02-16T00:33:49;18.00;59.80
50955;DHT22;36966;48.064;-0.792;2024-02-16T00:36:08;18.00;59.80
50955;DHT22;36966;48.064;-0.792;2024-02-16T00:38:28;18.00;59.80
50955;DHT22;36966;48.064;-0.792;2024-02-16T00:40:48;18.00;59.80
50955;DHT22;36966;48.064;-0.792;2024-02-16T00:43:07;18.00;59.90
50955;DHT22;36966;48.064;-0.792;2024-02-16T00:45:26;18.00;59.80
50955;DHT22;36966;48.064;-0.792;2024-02-16T00:47:45;18.00;59.80
50955;DHT22;36966;48.064;-0.792;2024-02-16T00:50:05;18.00;59.80
50955;DHT22;36966;48.064;-0.792;2024-02-16T00:52:27;18.00;59.90
50955;DHT22;36966;48.064;-0.792;2024-02-16T00:54:46;18.00;59.90
50955;DHT22;36966;48.064;-0.792;2024-02-16T00:57:05;18.00;60.00
50955;DHT22;36966;48.064;-0.792;2024-02-16T00:59:24;18.00;59.90
50955;DHT22;36966;48.064;-0.792;2024-02-16T01:01:44;18.00;60.00
50955;DHT22;36966;48.064;-0.792;2024-02-16T01:04:03;18.00;60.00
50955;DHT22;36966;48.064;-0.792;2024-02-16T01:06:23;18.00;60.00
50955;DHT22;36966;48.064;-0.792;2024-02-16T01:08:42;18.00;60.00
50955;DHT22;36966;48.064;-0.792;2024-02-16T01:11:01;18.00;60.10
50955;DHT22;36966;48.064;-0.792;2024-02-16T01:13:21;18.00;60.00
50955;DHT22;36966;48.064;-0.792;2024-02-16T01:15:40;18.00;60.10
50955;DHT22;36966;48.064;-0.792;2024-02-16T01:18:00;18.00;60.10
50955;DHT22;36966;48.064;-0.792;2024-02-16T01:20:19;17.90;60.10
50955;DHT22;36966;48.064;-0.792;2024-02-16T01:22:40;18.00;60.10
50955;DHT22;36966;48.064;-0.792;2024-02-16T01:25:00;18.00;60.10
50955;DHT22;36966;48.064;-0.792;2024-02-16T01:27:19;17.90;60.10
50955;DHT22;36966;48.064;-0.792;2024-02-16T01:29:38;18.00;60.10
50955;DHT22;36966;48.064;-0.792;2024-02-16T01:31:58;17.90;60.30
50955;DHT22;36966;48.064;-0.792;2024-02-16T01:34:17;18.00;60.20
50955;DHT22;36966;48.064;-0.792;2024-02-16T01:36:37;18.00;60.30
50955;DHT22;36966;48.064;-0.792;2024-02-16T01:38:56;18.00;60.30
50955;DHT22;36966;48.064;-0.792;2024-02-16T01:41:15;17.90;60.30
50955;DHT22;36966;48.064;-0.792;2024-02-16T01:43:34;17.90;60.30
50955;DHT22;36966;48.064;-0.792;2024-02-16T01:45:54;18.00;60.40
50955;DHT22;36966;48.064;-0.792;2024-02-16T01:48:16;18.00;60.50
50955;DHT22;36966;48.064;-0.792;2024-02-16T01:50:35;18.00;60.50
50955;DHT22;36966;48.064;-0.792;2024-02-16T01:52:55;18.00;60.40
50955;DHT22;36966;48.064;-0.792;2024-02-16T01:55:14;17.90;60.40
50955;DHT22;36966;48.064;-0.792;2024-02-16T01:57:34;17.90;60.50
50955;DHT22;36966;48.064;-0.792;2024-02-16T01:59:53;17.90;60.60
50955;DHT22;36966;48.064;-0.792;2024-02-16T02:02:12;18.00;60.60
50955;DHT22;36966;48.064;-0.792;2024-02-16T02:04:32;18.00;60.60
50955;DHT22;36966;48.064;-0.792;2024-02-16T02:06:51;17.90;60.50
50955;DHT22;36966;48.064;-0.792;2024-02-16T02:09:10;18.00;60.70
50955;DHT22;36966;48.064;-0.792;2024-02-16T02:11:29;17.90;60.50
50955;DHT22;36966;48.064;-0.792;2024-02-16T02:13:49;18.00;60.60
50955;DHT22;36966;48.064;-0.792;2024-02-16T02:16:08;18.00;60.60
50955;DHT22;36966;48.064;-0.792;2024-02-16T02:18:28;18.00;60.70
50955;DHT22;36966;48.064;-0.792;2024-02-16T02:20:47;17.90;60.60
50955;DHT22;36966;48.064;-0.792;2024-02-16T02:23:07;17.90;60.70
50955;DHT22;36966;48.064;-0.792;2024-02-16T02:25:26;18.00;60.70
50955;DHT22;36966;48.064;-0.792;2024-02-16T02:27:48;17.90;60.70
50955;DHT22;36966;48.064;-0.792;2024-02-16T02:30:08;17.90;60.70
50955;DHT22;36966;48.064;-0.792;2024-02-16T02:32:27;17.90;60.70
50955;DHT22;36966;48.064;-0.792;2024-02-16T02:34:47;17.90;60.80
50955;DHT22;36966;48.064;-0.792;2024-02-16T02:37:06;17.90;60.80
50955;DHT22;36966;48.064;-0.792;2024-02-16T02:39:27;17.90;60.80
50955;DHT22;36966;48.064;-0.792;2024-02-16T02:41:46;17.90;60.80
50955;DHT22;36966;48.064;-0.792;2024-02-16T02:44:05;17.90;60.80
50955;DHT22;36966;48.064;-0.792;2024-02-16T02:46:24;17.90;60.80
50955;DHT22;36966;48.064;-0.792;2024-02-16T02:48:44;17.90;60.80
50955;DHT22;36966;48.064;-0.792;2024-02-16T02:51:03;17.90;60.90
50955;DHT22;36966;48.064;-0.792;2024-02-16T02:53:23;17.90;60.90
50955;DHT22;36966;48.064;-0.792;2024-02-16T02:55:42;17.90;60.90
50955;DHT22;36966;48.064;-0.792;2024-02-16T02:58:02;17.90;60.90
50955;DHT22;36966;48.064;-0.792;2024-02-16T03:00:21;18.00;61.00
50955;DHT22;36966;48.064;-0.792;2024-02-16T03:02:40;17.90;60.90
50955;DHT22;36966;48.064;-0.792;2024-02-16T03:05:00;17.90;61.00
50955;DHT22;36966;48.064;-0.792;2024-02-16T03:07:19;17.90;61.00
50955;DHT22;36966;48.064;-0.792;2024-02-16T03:09:38;17.90;61.00
50955;DHT22;36966;48.064;-0.792;2024-02-16T03:11:57;17.90;61.10
50955;DHT22;36966;48.064;-0.792;2024-02-16T03:14:17;17.90;61.00
50955;DHT22;36966;48.064;-0.792;2024-02-16T03:16:36;17.90;61.10
50955;DHT22;36966;48.064;-0.792;2024-02-16T03:18:55;17.90;61.10
50955;DHT22;36966;48.064;-0.792;2024-02-16T03:21:15;17.90;61.10
50955;DHT22;36966;48.064;-0.792;2024-02-16T03:23:35;17.80;61.20
50955;DHT22;36966;48.064;-0.792;2024-02-16T03:25:56;17.90;61.20
50955;DHT22;36966;48.064;-0.792;2024-02-16T03:28:15;17.90;61.20
50955;DHT22;36966;48.064;-0.792;2024-02-16T03:30:34;17.90;61.20
50955;DHT22;36966;48.064;-0.792;2024-02-16T03:32:54;17.90;61.20
50955;DHT22;36966;48.064;-0.792;2024-02-16T03:35:13;17.90;61.20
50955;DHT22;36966;48.064;-0.792;2024-02-16T03:37:33;17.90;61.30
50955;DHT22;36966;48.064;-0.792;2024-02-16T03:39:52;17.90;61.20
50955;DHT22;36966;48.064;-0.792;2024-02-16T03:42:12;17.90;61.20
50955;DHT22;36966;48.064;-0.792;2024-02-16T03:44:32;17.90;61.30
50955;DHT22;36966;48.064;-0.792;2024-02-16T03:46:51;17.90;61.30
50955;DHT22;36966;48.064;-0.792;2024-02-16T03:49:10;17.90;61.40
50955;DHT22;36966;48.064;-0.792;2024-02-16T03:51:29;17.90;61.30
50955;DHT22;36966;48.064;-0.792;2024-02-16T03:53:49;17.90;61.40
50955;DHT22;36966;48.064;-0.792;2024-02-16T03:56:08;17.90;61.40
50955;DHT22;36966;48.064;-0.792;2024-02-16T03:58:28;17.90;61.40
50955;DHT22;36966;48.064;-0.792;2024-02-16T04:00:47;17.90;61.40
50955;DHT22;36966;48.064;-0.792;2024-02-16T04:03:08;17.90;61.40
50955;DHT22;36966;48.064;-0.792;2024-02-16T04:05:28;17.90;61.40
50955;DHT22;36966;48.064;-0.792;2024-02-16T04:07:51;17.90;61.50
50955;DHT22;36966;48.064;-0.792;2024-02-16T04:10:10;17.90;61.50
50955;DHT22;36966;48.064;-0.792;2024-02-16T04:12:30;17.90;61.60
50955;DHT22;36966;48.064;-0.792;2024-02-16T04:14:49;17.90;61.60
50955;DHT22;36966;48.064;-0.792;2024-02-16T04:17:08;17.90;61.60
50955;DHT22;36966;48.064;-0.792;2024-02-16T04:19:28;17.80;61.70
50955;DHT22;36966;48.064;-0.792;2024-02-16T04:21:47;17.90;61.70
50955;DHT22;36966;48.064;-0.792;2024-02-16T04:24:07;17.90;61.70
50955;DHT22;36966;48.064;-0.792;2024-02-16T04:26:26;17.90;61.60
50955;DHT22;36966;48.064;-0.792;2024-02-16T04:28:45;17.90;61.70
50955;DHT22;36966;48.064;-0.792;2024-02-16T04:31:04;17.90;61.80
50955;DHT22;36966;48.064;-0.792;2024-02-16T04:33:24;17.90;61.70
50955;DHT22;36966;48.064;-0.792;2024-02-16T04:35:43;17.90;61.70
50955;DHT22;36966;48.064;-0.792;2024-02-16T04:38:05;17.90;61.90
50955;DHT22;36966;48.064;-0.792;2024-02-16T04:40:25;17.90;61.80
50955;DHT22;36966;48.064;-0.792;2024-02-16T04:42:45;17.90;62.00
50955;DHT22;36966;48.064;-0.792;2024-02-16T04:45:05;17.90;61.90
50955;DHT22;36966;48.064;-0.792;2024-02-16T04:47:27;17.90;61.90
50955;DHT22;36966;48.064;-0.792;2024-02-16T04:49:46;17.90;62.00
50955;DHT22;36966;48.064;-0.792;2024-02-16T04:52:05;17.70;64.40
50955;DHT22;36966;48.064;-0.792;2024-02-16T04:54:28;17.60;64.30
50955;DHT22;36966;48.064;-0.792;2024-02-16T04:56:48;17.70;63.50
50955;DHT22;36966;48.064;-0.792;2024-02-16T04:59:07;17.70;63.20
50955;DHT22;36966;48.064;-0.792;2024-02-16T05:01:27;17.80;62.90
50955;DHT22;36966;48.064;-0.792;2024-02-16T05:03:48;17.80;62.80
50955;DHT22;36966;48.064;-0.792;2024-02-16T05:06:07;17.80;62.60
50955;DHT22;36966;48.064;-0.792;2024-02-16T05:08:27;17.80;62.50
50955;DHT22;36966;48.064;-0.792;2024-02-16T05:10:46;17.80;62.40
50955;DHT22;36966;48.064;-0.792;2024-02-16T05:13:05;17.80;62.60
50955;DHT22;36966;48.064;-0.792;2024-02-16T05:15:24;17.80;62.50
50955;DHT22;36966;48.064;-0.792;2024-02-16T05:17:46;17.80;62.50
50955;DHT22;36966;48.064;-0.792;2024-02-16T05:20:10;17.80;62.30
50955;DHT22;36966;48.064;-0.792;2024-02-16T05:22:34;17.80;62.30
50955;DHT22;36966;48.064;-0.792;2024-02-16T05:24:53;17.80;62.30
50955;DHT22;36966;48.064;-0.792;2024-02-16T05:27:12;17.80;62.40
50955;DHT22;36966;48.064;-0.792;2024-02-16T05:29:32;17.80;62.30
50955;DHT22;36966;48.064;-0.792;2024-02-16T05:31:51;17.80;62.20
50955;DHT22;36966;48.064;-0.792;2024-02-16T05:34:10;17.80;62.10
50955;DHT22;36966;48.064;-0.792;2024-02-16T05:36:30;17.80;62.10
50955;DHT22;36966;48.064;-0.792;2024-02-16T05:38:54;17.80;62.20
50955;DHT22;36966;48.064;-0.792;2024-02-16T05:41:25;17.80;62.20
50955;DHT22;36966;48.064;-0.792;2024-02-16T05:43:44;17.80;62.10
50955;DHT22;36966;48.064;-0.792;2024-02-16T05:46:04;17.80;62.10
50955;DHT22;36966;48.064;-0.792;2024-02-16T05:48:25;17.80;62.00
50955;DHT22;36966;48.064;-0.792;2024-02-16T05:50:49;17.80;62.00
50955;DHT22;36966;48.064;-0.792;2024-02-16T05:53:09;17.80;61.90
50955;DHT22;36966;48.064;-0.792;2024-02-16T05:55:29;17.80;61.90
50955;DHT22;36966;48.064;-0.792;2024-02-16T05:57:48;17.80;62.00
50955;DHT22;36966;48.064;-0.792;2024-02-16T06:00:07;17.80;62.10
50955;DHT22;36966;48.064;-0.792;2024-02-16T06:02:27;17.70;62.00
50955;DHT22;36966;48.064;-0.792;2024-02-16T06:04:47;17.80;62.00
50955;DHT22;36966;48.064;-0.792;2024-02-16T06:07:06;17.80;61.90
50955;DHT22;36966;48.064;-0.792;2024-02-16T06:09:26;17.80;62.00
50955;DHT22;36966;48.064;-0.792;2024-02-16T06:11:45;17.80;62.30
50955;DHT22;36966;48.064;-0.792;2024-02-16T06:14:04;17.80;62.20
50955;DHT22;36966;48.064;-0.792;2024-02-16T06:16:23;17.80;62.30
50955;DHT22;36966;48.064;-0.792;2024-02-16T06:18:42;17.80;62.10
50955;DHT22;36966;48.064;-0.792;2024-02-16T06:21:02;17.70;62.10
50955;DHT22;36966;48.064;-0.792;2024-02-16T06:23:21;17.70;62.30
50955;DHT22;36966;48.064;-0.792;2024-02-16T06:25:40;17.70;62.20
50955;DHT22;36966;48.064;-0.792;2024-02-16T06:28:00;17.70;62.20
50955;DHT22;36966;48.064;-0.792;2024-02-16T06:30:20;17.70;62.40
50955;DHT22;36966;48.064;-0.792;2024-02-16T06:32:39;17.70;62.30
50955;DHT22;36966;48.064;-0.792;2024-02-16T06:34:59;17.70;62.20
50955;DHT22;36966;48.064;-0.792;2024-02-16T06:37:18;17.70;62.10
50955;DHT22;36966;48.064;-0.792;2024-02-16T06:39:38;17.60;62.40
50955;DHT22;36966;48.064;-0.792;2024-02-16T06:41:57;17.70;62.20
50955;DHT22;36966;48.064;-0.792;2024-02-16T06:44:16;17.60;62.10
50955;DHT22;36966;48.064;-0.792;2024-02-16T06:46:35;17.60;62.10
50955;DHT22;36966;48.064;-0.792;2024-02-16T06:48:55;17.60;62.20
50955;DHT22;36966;48.064;-0.792;2024-02-16T06:51:15;17.50;62.30
50955;DHT22;36966;48.064;-0.792;2024-02-16T06:53:34;17.50;62.30
50955;DHT22;36966;48.064;-0.792;2024-02-16T06:55:53;17.50;62.20
50955;DHT22;36966;48.064;-0.792;2024-02-16T06:58:13;17.60;62.20
50955;DHT22;36966;48.064;-0.792;2024-02-16T07:00:33;17.50;62.20
50955;DHT22;36966;48.064;-0.792;2024-02-16T07:02:52;17.50;62.20
50955;DHT22;36966;48.064;-0.792;2024-02-16T07:05:11;17.50;62.20
50955;DHT22;36966;48.064;-0.792;2024-02-16T07:07:31;17.50;62.10
50955;DHT22;36966;48.064;-0.792;2024-02-16T07:09:53;17.50;62.30
50955;DHT22;36966;48.064;-0.792;2024-02-16T07:12:12;17.50;62.30
50955;DHT22;36966;48.064;-0.792;2024-02-16T07:14:32;17.50;62.60
50955;DHT22;36966;48.064;-0.792;2024-02-16T07:16:51;17.50;62.40
50955;DHT22;36966;48.064;-0.792;2024-02-16T07:19:10;17.50;62.30
50955;DHT22;36966;48.064;-0.792;2024-02-16T07:21:29;17.50;62.10
50955;DHT22;36966;48.064;-0.792;2024-02-16T07:23:48;17.50;62.30
50955;DHT22;36966;48.064;-0.792;2024-02-16T07:26:08;17.40;62.40
50955;DHT22;36966;48.064;-0.792;2024-02-16T07:28:27;17.40;62.30
50955;DHT22;36966;48.064;-0.792;2024-02-16T07:30:46;17.40;62.30
50955;DHT22;36966;48.064;-0.792;2024-02-16T07:33:06;17.50;62.30
50955;DHT22;36966;48.064;-0.792;2024-02-16T07:35:26;17.40;62.30
50955;DHT22;36966;48.064;-0.792;2024-02-16T07:37:45;17.40;62.30
50955;DHT22;36966;48.064;-0.792;2024-02-16T07:40:05;17.40;62.30
50955;DHT22;36966;48.064;-0.792;2024-02-16T07:42:28;17.40;62.10
50955;DHT22;36966;48.064;-0.792;2024-02-16T07:44:47;17.40;62.10
50955;DHT22;36966;48.064;-0.792;2024-02-16T07:47:07;17.40;62.30
50955;DHT22;36966;48.064;-0.792;2024-02-16T07:49:26;17.40;62.20
50955;DHT22;36966;48.064;-0.792;2024-02-16T07:51:45;17.50;62.20
50955;DHT22;36966;48.064;-0.792;2024-02-16T07:54:05;17.50;62.20
50955;DHT22;36966;48.064;-0.792;2024-02-16T07:56:25;17.40;61.90
50955;DHT22;36966;48.064;-0.792;2024-02-16T07:58:44;17.50;61.90
50955;DHT22;36966;48.064;-0.792;2024-02-16T08:01:03;17.40;61.90
50955;DHT22;36966;48.064;-0.792;2024-02-16T08:03:22;17.30;61.80
50955;DHT22;36966;48.064;-0.792;2024-02-16T08:05:42;17.30;62.20
50955;DHT22;36966;48.064;-0.792;2024-02-16T08:08:01;17.40;62.00
50955;DHT22;36966;48.064;-0.792;2024-02-16T08:10:20;17.40;62.20
50955;DHT22;36966;48.064;-0.792;2024-02-16T08:12:40;17.40;61.90
50955;DHT22;36966;48.064;-0.792;2024-02-16T08:14:59;17.30;61.90
50955;DHT22;36966;48.064;-0.792;2024-02-16T08:17:19;17.30;62.00
50955;DHT22;36966;48.064;-0.792;2024-02-16T08:19:39;17.40;62.00
50955;DHT22;36966;48.064;-0.792;2024-02-16T08:21:58;17.40;61.70
50955;DHT22;36966;48.064;-0.792;2024-02-16T08:24:18;17.40;61.70
50955;DHT22;36966;48.064;-0.792;2024-02-16T08:26:38;17.40;61.80
50955;DHT22;36966;48.064;-0.792;2024-02-16T08:28:57;17.40;61.90
50955;DHT22;36966;48.064;-0.792;2024-02-16T08:31:17;17.40;61.70
50955;DHT22;36966;48.064;-0.792;2024-02-16T08:33:36;17.50;61.90
50955;DHT22;36966;48.064;-0.792;2024-02-16T08:35:57;17.50;61.60
50955;DHT22;36966;48.064;-0.792;2024-02-16T08:38:17;17.40;61.80
50955;DHT22;36966;48.064;-0.792;2024-02-16T08:40:36;17.50;61.80
50955;DHT22;36966;48.064;-0.792;2024-02-16T08:42:55;17.40;61.50
50955;DHT22;36966;48.064;-0.792;2024-02-16T08:45:15;17.40;61.70
50955;DHT22;36966;48.064;-0.792;2024-02-16T08:47:36;17.50;61.60
50955;DHT22;36966;48.064;-0.792;2024-02-16T08:49:55;17.50;61.60
50955;DHT22;36966;48.064;-0.792;2024-02-16T08:52:14;17.60;61.50
50955;DHT22;36966;48.064;-0.792;2024-02-16T08:54:34;17.60;61.60
50955;DHT22;36966;48.064;-0.792;2024-02-16T08:56:53;17.70;61.50
50955;DHT22;36966;48.064;-0.792;2024-02-16T08:59:13;17.70;61.20
50955;DHT22;36966;48.064;-0.792;2024-02-16T09:01:33;17.70;60.70
50955;DHT22;36966;48.064;-0.792;2024-02-16T09:03:53;17.70;59.90
50955;DHT22;36966;48.064;-0.792;2024-02-16T09:06:12;17.70;61.30
50955;DHT22;36966;48.064;-0.792;2024-02-16T09:08:32;17.70;61.20
50955;DHT22;36966;48.064;-0.792;2024-02-16T09:10:52;17.70;60.70
50955;DHT22;36966;48.064;-0.792;2024-02-16T09:13:11;17.70;60.60
50955;DHT22;36966;48.064;-0.792;2024-02-16T09:15:30;17.80;60.90
50955;DHT22;36966;48.064;-0.792;2024-02-16T09:17:50;17.90;60.40
50955;DHT22;36966;48.064;-0.792;2024-02-16T09:20:10;17.80;59.60
50955;DHT22;36966;48.064;-0.792;2024-02-16T09:22:30;17.80;59.80
50955;DHT22;36966;48.064;-0.792;2024-02-16T09:24:49;17.90;59.70
50955;DHT22;36966;48.064;-0.792;2024-02-16T09:27:09;17.90;59.90
50955;DHT22;36966;48.064;-0.792;2024-02-16T09:29:29;17.90;59.90
50955;DHT22;36966;48.064;-0.792;2024-02-16T09:31:49;17.90;59.50
50955;DHT22;36966;48.064;-0.792;2024-02-16T09:34:08;17.90;59.70
50955;DHT22;36966;48.064;-0.792;2024-02-16T09:36:28;18.00;59.20
50955;DHT22;36966;48.064;-0.792;2024-02-16T09:38:47;18.00;59.40
50955;DHT22;36966;48.064;-0.792;2024-02-16T09:41:06;18.00;58.70
50955;DHT22;36966;48.064;-0.792;2024-02-16T09:43:26;18.00;58.70
50955;DHT22;36966;48.064;-0.792;2024-02-16T09:45:46;18.10;58.50
50955;DHT22;36966;48.064;-0.792;2024-02-16T09:48:05;18.10;57.90
50955;DHT22;36966;48.064;-0.792;2024-02-16T09:50:26;18.00;58.90
50955;DHT22;36966;48.064;-0.792;2024-02-16T09:52:48;18.00;58.50
50955;DHT22;36966;48.064;-0.792;2024-02-16T09:55:10;18.00;59.00
50955;DHT22;36966;48.064;-0.792;2024-02-16T09:57:30;18.00;59.10
50955;DHT22;36966;48.064;-0.792;2024-02-16T09:59:49;18.10;58.40
50955;DHT22;36966;48.064;-0.792;2024-02-16T10:02:09;18.10;58.70
50955;DHT22;36966;48.064;-0.792;2024-02-16T10:04:28;18.00;58.60
50955;DHT22;36966;48.064;-0.792;2024-02-16T10:06:47;18.00;58.80
50955;DHT22;36966;48.064;-0.792;2024-02-16T10:09:07;18.00;58.80
50955;DHT22;36966;48.064;-0.792;2024-02-16T10:11:26;18.00;58.90
50955;DHT22;36966;48.064;-0.792;2024-02-16T10:16:15;18.10;58.50
50955;DHT22;36966;48.064;-0.792;2024-02-16T10:18:35;18.10;58.30
50955;DHT22;36966;48.064;-0.792;2024-02-16T10:20:54;18.20;58.80
50955;DHT22;36966;48.064;-0.792;2024-02-16T10:23:14;18.20;58.30
50955;DHT22;36966;48.064;-0.792;2024-02-16T10:25:34;18.10;58.10
50955;DHT22;36966;48.064;-0.792;2024-02-16T10:27:53;18.20;58.40
50955;DHT22;36966;48.064;-0.792;2024-02-16T10:30:14;18.20;57.10
50955;DHT22;36966;48.064;-0.792;2024-02-16T10:32:34;18.20;58.40
50955;DHT22;36966;48.064;-0.792;2024-02-16T10:34:53;18.20;58.10
50955;DHT22;36966;48.064;-0.792;2024-02-16T10:37:12;18.20;58.00
50955;DHT22;36966;48.064;-0.792;2024-02-16T10:39:32;18.20;58.10
50955;DHT22;36966;48.064;-0.792;2024-02-16T10:41:51;18.20;57.50
50955;DHT22;36966;48.064;-0.792;2024-02-16T10:44:11;18.20;56.90
50955;DHT22;36966;48.064;-0.792;2024-02-16T10:46:30;18.10;57.00
50955;DHT22;36966;48.064;-0.792;2024-02-16T10:48:49;18.20;56.90
50955;DHT22;36966;48.064;-0.792;2024-02-16T10:51:09;18.20;56.80
50955;DHT22;36966;48.064;-0.792;2024-02-16T10:53:28;18.20;56.90
50955;DHT22;36966;48.064;-0.792;2024-02-16T10:55:49;18.30;56.70
50955;DHT22;36966;48.064;-0.792;2024-02-16T10:58:08;18.50;59.20
50955;DHT22;36966;48.064;-0.792;2024-02-16T11:00:28;18.70;58.80
50955;DHT22;36966;48.064;-0.792;2024-02-16T11:02:54;18.70;57.90
50955;DHT22;36966;48.064;-0.792;2024-02-16T11:05:14;18.60;57.50
50955;DHT22;36966;48.064;-0.792;2024-02-16T11:07:36;18.60;57.70
50955;DHT22;36966;48.064;-0.792;2024-02-16T11:09:56;18.50;57.90
50955;DHT22;36966;48.064;-0.792;2024-02-16T11:12:18;18.50;57.90
50955;DHT22;36966;48.064;-0.792;2024-02-16T11:14:41;18.60;57.80
50955;DHT22;36966;48.064;-0.792;2024-02-16T11:17:01;18.60;57.90
50955;DHT22;36966;48.064;-0.792;2024-02-16T11:19:21;18.60;57.60
50955;DHT22;36966;48.064;-0.792;2024-02-16T11:21:54;18.70;57.50
50955;DHT22;36966;48.064;-0.792;2024-02-16T11:24:13;18.70;57.40
50955;DHT22;36966;48.064;-0.792;2024-02-16T11:26:33;18.70;56.40
50955;DHT22;36966;48.064;-0.792;2024-02-16T11:29:00;18.80;56.80
50955;DHT22;36966;48.064;-0.792;2024-02-16T11:31:20;18.90;56.60
50955;DHT22;36966;48.064;-0.792;2024-02-16T11:33:44;18.90;56.60
50955;DHT22;36966;48.064;-0.792;2024-02-16T11:36:04;18.90;56.80
50955;DHT22;36966;48.064;-0.792;2024-02-16T11:38:26;19.00;56.10
50955;DHT22;36966;48.064;-0.792;2024-02-16T11:41:19;18.90;55.30
50955;DHT22;36966;48.064;-0.792;2024-02-16T11:43:31;18.90;56.40
50955;DHT22;36966;48.064;-0.792;2024-02-16T11:45:54;19.00;56.60
50955;DHT22;36966;48.064;-0.792;2024-02-16T11:48:18;18.90;56.70
50955;DHT22;36966;48.064;-0.792;2024-02-16T11:50:37;19.00;56.30
50955;DHT22;36966;48.064;-0.792;2024-02-16T11:52:57;19.00;56.40
50955;DHT22;36966;48.064;-0.792;2024-02-16T11:55:16;19.00;56.20
50955;DHT22;36966;48.064;-0.792;2024-02-16T11:57:35;19.10;56.00
50955;DHT22;36966;48.064;-0.792;2024-02-16T11:59:55;19.10;55.80
50955;DHT22;36966;48.064;-0.792;2024-02-16T12:02:17;19.10;56.20
50955;DHT22;36966;48.064;-0.792;2024-02-16T12:04:43;19.20;56.20
50955;DHT22;36966;48.064;-0.792;2024-02-16T12:07:02;19.10;55.90
50955;DHT22;36966;48.064;-0.792;2024-02-16T12:09:22;19.10;55.90
50955;DHT22;36966;48.064;-0.792;2024-02-16T12:11:41;19.00;55.70
50955;DHT22;36966;48.064;-0.792;2024-02-16T12:14:00;19.10;55.80
50955;DHT22;36966;48.064;-0.792;2024-02-16T12:16:21;19.00;56.00
50955;DHT22;36966;48.064;-0.792;2024-02-16T12:18:41;19.00;56.20
50955;DHT22;36966;48.064;-0.792;2024-02-16T12:21:04;18.90;56.10
50955;DHT22;36966;48.064;-0.792;2024-02-16T12:23:28;18.90;56.20
50955;DHT22;36966;48.064;-0.792;2024-02-16T12:25:48;18.90;55.80
50955;DHT22;36966;48.064;-0.792;2024-02-16T12:28:07;18.90;55.80
50955;DHT22;36966;48.064;-0.792;2024-02-16T12:30:27;18.90;56.20
50955;DHT22;36966;48.064;-0.792;2024-02-16T12:32:46;18.90;56.20
50955;DHT22;36966;48.064;-0.792;2024-02-16T12:35:05;18.80;56.10
50955;DHT22;36966;48.064;-0.792;2024-02-16T12:37:25;18.90;55.60
50955;DHT22;36966;48.064;-0.792;2024-02-16T12:39:44;18.90;55.80
50955;DHT22;36966;48.064;-0.792;2024-02-16T12:42:04;18.80;55.60
50955;DHT22;36966;48.064;-0.792;2024-02-16T12:44:24;18.80;55.60
50955;DHT22;36966;48.064;-0.792;2024-02-16T12:46:43;18.80;55.70
50955;DHT22;36966;48.064;-0.792;2024-02-16T12:49:02;18.80;55.70
50955;DHT22;36966;48.064;-0.792;2024-02-16T12:51:22;18.80;55.60
50955;DHT22;36966;48.064;-0.792;2024-02-16T12:53:42;18.70;55.70
50955;DHT22;36966;48.064;-0.792;2024-02-16T12:56:01;18.80;55.70
50955;DHT22;36966;48.064;-0.792;2024-02-16T12:58:20;18.70;55.70
50955;DHT22;36966;48.064;-0.792;2024-02-16T13:00:39;18.70;55.80
50955;DHT22;36966;48.064;-0.792;2024-02-16T13:02:59;18.70;55.60
50955;DHT22;36966;48.064;-0.792;2024-02-16T13:05:19;18.70;56.10
50955;DHT22;36966;48.064;-0.792;2024-02-16T13:07:38;18.70;56.00
50955;DHT22;36966;48.064;-0.792;2024-02-16T13:09:58;18.70;56.00
50955;DHT22;36966;48.064;-0.792;2024-02-16T13:12:17;18.70;56.00
50955;DHT22;36966;48.064;-0.792;2024-02-16T13:14:39;18.70;56.00
50955;DHT22;36966;48.064;-0.792;2024-02-16T13:16:58;18.70;56.20
50955;DHT22;36966;48.064;-0.792;2024-02-16T13:19:18;18.60;56.10
50955;DHT22;36966;48.064;-0.792;2024-02-16T13:21:37;18.70;56.20
50955;DHT22;36966;48.064;-0.792;2024-02-16T13:23:56;18.60;56.20
50955;DHT22;36966;48.064;-0.792;2024-02-16T13:26:15;18.60;56.20
50955;DHT22;36966;48.064;-0.792;2024-02-16T13:28:35;18.60;56.40
50955;DHT22;36966;48.064;-0.792;2024-02-16T13:30:54;18.60;56.40
50955;DHT22;36966;48.064;-0.792;2024-02-16T13:33:14;18.60;56.50
50955;DHT22;36966;48.064;-0.792;2024-02-16T13:35:33;18.60;56.60
50955;DHT22;36966;48.064;-0.792;2024-02-16T13:37:54;18.50;56.60
50955;DHT22;36966;48.064;-0.792;2024-02-16T13:40:13;18.50;56.70
50955;DHT22;36966;48.064;-0.792;2024-02-16T13:42:33;18.50;56.70
50955;DHT22;36966;48.064;-0.792;2024-02-16T13:44:52;18.50;56.80
50955;DHT22;36966;48.064;-0.792;2024-02-16T13:47:12;18.50;56.80
50955;DHT22;36966;48.064;-0.792;2024-02-16T13:49:31;18.50;56.90
50955;DHT22;36966;48.064;-0.792;2024-02-16T13:51:51;18.50;56.90
50955;DHT22;36966;48.064;-0.792;2024-02-16T13:54:10;18.50;56.90
50955;DHT22;36966;48.064;-0.792;2024-02-16T13:56:29;18.50;57.00
50955;DHT22;36966;48.064;-0.792;2024-02-16T13:58:48;18.50;57.00
50955;DHT22;36966;48.064;-0.792;2024-02-16T14:01:07;18.40;57.00
50955;DHT22;36966;48.064;-0.792;2024-02-16T14:03:27;18.40;57.00
50955;DHT22;36966;48.064;-0.792;2024-02-16T14:05:46;18.40;57.00
50955;DHT22;36966;48.064;-0.792;2024-02-16T14:08:05;18.40;57.00
50955;DHT22;36966;48.064;-0.792;2024-02-16T14:10:26;18.40;57.00
50955;DHT22;36966;48.064;-0.792;2024-02-16T14:12:45;18.40;57.00
50955;DHT22;36966;48.064;-0.792;2024-02-16T14:15:06;18.40;57.00
50955;DHT22;36966;48.064;-0.792;2024-02-16T14:17:25;18.40;57.00
50955;DHT22;36966;48.064;-0.792;2024-02-16T14:19:44;18.40;57.00
50955;DHT22;36966;48.064;-0.792;2024-02-16T14:22:04;18.40;57.00
50955;DHT22;36966;48.064;-0.792;2024-02-16T14:24:25;18.40;57.00
50955;DHT22;36966;48.064;-0.792;2024-02-16T14:26:45;18.40;57.00
50955;DHT22;36966;48.064;-0.792;2024-02-16T14:29:05;18.40;57.00
50955;DHT22;36966;48.064;-0.792;2024-02-16T14:31:25;18.40;56.90